sensor_id;sensor_type;location;lat;lon;timestamp;P1;durP1;ratioP1;P2;durP2;ratioP2
4323;SDS011;2175;51.018;6.994;2022-09-29T00:01:57;14.10;;;8.53;;
4323;SDS011;2175;51.018;6.994;2022-09-29T00:04:23;11.57;;;7.77;;
4323;SDS011;2175;51.018;6.994;2022-09-29T00:06:48;14.70;;;7.50;;
4323;SDS011;2175;51.018;6.994;2022-09-29T00:09:14;14.30;;;8.60;;
4323;SDS011;2175;51.018;6.994;2022-09-29T00:11:40;9.90;;;7.60;;
4323;SDS011;2175;51.018;6.994;2022-09-29T00:14:05;11.17;;;8.27;;
4323;SDS011;2175;51.018;6.994;2022-09-29T00:16:31;12.13;;;7.40;;
4323;SDS011;2175;51.018;6.994;2022-09-29T00:18:56;10.40;;;7.57;;
4323;SDS011;2175;51.018;6.994;2022-09-29T00:21:22;9.63;;;7.77;;
4323;SDS011;2175;51.018;6.994;2022-09-29T00:23:48;12.37;;;7.40;;
4323;SDS011;2175;51.018;6.994;2022-09-29T00:26:15;9.63;;;7.30;;
4323;SDS011;2175;51.018;6.994;2022-09-29T00:28:52;9.77;;;7.37;;
4323;SDS011;2175;51.018;6.994;2022-09-29T00:31:20;12.30;;;7.40;;
4323;SDS011;2175;51.018;6.994;2022-09-29T00:33:47;12.27;;;8.77;;
4323;SDS011;2175;51.018;6.994;2022-09-29T00:36:14;10.00;;;7.23;;
4323;SDS011;2175;51.018;6.994;2022-09-29T00:38:42;10.07;;;8.10;;
4323;SDS011;2175;51.018;6.994;2022-09-29T00:41:22;15.00;;;7.77;;
4323;SDS011;2175;51.018;6.994;2022-09-29T00:43:54;12.43;;;7.53;;
4323;SDS011;2175;51.018;6.994;2022-09-29T00:49:21;9.23;;;6.87;;
4323;SDS011;2175;51.018;6.994;2022-09-29T00:51:50;9.67;;;7.33;;
4323;SDS011;2175;51.018;6.994;2022-09-29T00:54:17;11.33;;;8.20;;
4323;SDS011;2175;51.018;6.994;2022-09-29T00:56:44;9.03;;;6.80;;
4323;SDS011;2175;51.018;6.994;2022-09-29T00:59:12;10.43;;;7.30;;
4323;SDS011;2175;51.018;6.994;2022-09-29T01:01:41;13.27;;;7.03;;
4323;SDS011;2175;51.018;6.994;2022-09-29T01:04:11;8.13;;;6.77;;
4323;SDS011;2175;51.018;6.994;2022-09-29T01:06:41;10.90;;;7.77;;
4323;SDS011;2175;51.018;6.994;2022-09-29T01:09:15;9.33;;;7.30;;
4323;SDS011;2175;51.018;6.994;2022-09-29T01:11:43;18.23;;;7.10;;
4323;SDS011;2175;51.018;6.994;2022-09-29T01:14:10;11.93;;;7.17;;
4323;SDS011;2175;51.018;6.994;2022-09-29T01:16:36;10.23;;;7.40;;
4323;SDS011;2175;51.018;6.994;2022-09-29T01:19:06;10.30;;;7.43;;
4323;SDS011;2175;51.018;6.994;2022-09-29T01:21:50;8.30;;;6.93;;
4323;SDS011;2175;51.018;6.994;2022-09-29T01:30:15;9.43;;;6.77;;
4323;SDS011;2175;51.018;6.994;2022-09-29T01:35:03;10.80;;;6.37;;
4323;SDS011;2175;51.018;6.994;2022-09-29T01:40:47;10.40;;;6.83;;
4323;SDS011;2175;51.018;6.994;2022-09-29T01:43:32;7.80;;;6.53;;
4323;SDS011;2175;51.018;6.994;2022-09-29T01:46:03;8.97;;;6.77;;
4323;SDS011;2175;51.018;6.994;2022-09-29T01:48:36;7.50;;;6.70;;
4323;SDS011;2175;51.018;6.994;2022-09-29T01:51:08;12.93;;;7.43;;
4323;SDS011;2175;51.018;6.994;2022-09-29T01:53:40;9.60;;;6.97;;
4323;SDS011;2175;51.018;6.994;2022-09-29T01:56:15;7.27;;;6.50;;
4323;SDS011;2175;51.018;6.994;2022-09-29T01:58:56;12.80;;;7.13;;
4323;SDS011;2175;51.018;6.994;2022-09-29T02:01:27;9.10;;;6.67;;
4323;SDS011;2175;51.018;6.994;2022-09-29T02:04:20;9.77;;;6.70;;
4323;SDS011;2175;51.018;6.994;2022-09-29T02:06:50;10.43;;;6.90;;
4323;SDS011;2175;51.018;6.994;2022-09-29T02:09:22;9.43;;;6.87;;
4323;SDS011;2175;51.018;6.994;2022-09-29T02:11:53;9.17;;;6.70;;
4323;SDS011;2175;51.018;6.994;2022-09-29T02:14:22;10.93;;;6.60;;
4323;SDS011;2175;51.018;6.994;2022-09-29T02:16:58;9.70;;;6.17;;
4323;SDS011;2175;51.018;6.994;2022-09-29T02:19:30;11.90;;;6.73;;
4323;SDS011;2175;51.018;6.994;2022-09-29T02:21:58;12.17;;;7.00;;
4323;SDS011;2175;51.018;6.994;2022-09-29T02:24:24;14.30;;;7.70;;
4323;SDS011;2175;51.018;6.994;2022-09-29T02:26:50;12.23;;;7.30;;
4323;SDS011;2175;51.018;6.994;2022-09-29T02:29:16;10.80;;;8.20;;
4323;SDS011;2175;51.018;6.994;2022-09-29T02:31:44;10.17;;;8.33;;
4323;SDS011;2175;51.018;6.994;2022-09-29T02:34:12;11.70;;;8.37;;
4323;SDS011;2175;51.018;6.994;2022-09-29T02:53:37;9.00;;;6.70;;
4323;SDS011;2175;51.018;6.994;2022-09-29T02:59:03;10.43;;;8.10;;
4323;SDS011;2175;51.018;6.994;2022-09-29T03:01:53;10.63;;;7.43;;
4323;SDS011;2175;51.018;6.994;2022-09-29T03:04:21;12.27;;;8.37;;
4323;SDS011;2175;51.018;6.994;2022-09-29T03:06:48;11.10;;;7.50;;
4323;SDS011;2175;51.018;6.994;2022-09-29T03:09:14;9.33;;;7.20;;
4323;SDS011;2175;51.018;6.994;2022-09-29T03:11:40;11.97;;;7.53;;
4323;SDS011;2175;51.018;6.994;2022-09-29T03:14:05;14.20;;;7.30;;
4323;SDS011;2175;51.018;6.994;2022-09-29T03:16:31;9.00;;;7.23;;
4323;SDS011;2175;51.018;6.994;2022-09-29T03:18:57;12.80;;;6.60;;
4323;SDS011;2175;51.018;6.994;2022-09-29T03:21:23;13.30;;;7.70;;
4323;SDS011;2175;51.018;6.994;2022-09-29T03:23:49;8.50;;;7.27;;
4323;SDS011;2175;51.018;6.994;2022-09-29T03:26:14;13.07;;;7.00;;
4323;SDS011;2175;51.018;6.994;2022-09-29T03:28:40;12.27;;;6.70;;
4323;SDS011;2175;51.018;6.994;2022-09-29T03:31:07;9.10;;;6.80;;
4323;SDS011;2175;51.018;6.994;2022-09-29T03:33:34;9.23;;;7.17;;
4323;SDS011;2175;51.018;6.994;2022-09-29T03:36:02;10.07;;;6.40;;
4323;SDS011;2175;51.018;6.994;2022-09-29T03:38:29;10.40;;;6.83;;
4323;SDS011;2175;51.018;6.994;2022-09-29T03:40:55;10.53;;;6.57;;
4323;SDS011;2175;51.018;6.994;2022-09-29T03:43:21;10.00;;;6.60;;
4323;SDS011;2175;51.018;6.994;2022-09-29T03:45:47;8.63;;;6.47;;
4323;SDS011;2175;51.018;6.994;2022-09-29T03:48:14;14.20;;;6.80;;
4323;SDS011;2175;51.018;6.994;2022-09-29T03:50:40;8.17;;;6.70;;
4323;SDS011;2175;51.018;6.994;2022-09-29T03:53:05;11.90;;;6.80;;
4323;SDS011;2175;51.018;6.994;2022-09-29T03:55:31;12.43;;;7.43;;
4323;SDS011;2175;51.018;6.994;2022-09-29T03:57:57;8.33;;;6.80;;
4323;SDS011;2175;51.018;6.994;2022-09-29T04:00:22;9.80;;;6.90;;
4323;SDS011;2175;51.018;6.994;2022-09-29T04:02:48;8.63;;;6.20;;
4323;SDS011;2175;51.018;6.994;2022-09-29T04:05:13;8.13;;;7.20;;
4323;SDS011;2175;51.018;6.994;2022-09-29T04:07:39;11.30;;;7.63;;
4323;SDS011;2175;51.018;6.994;2022-09-29T04:10:05;10.50;;;6.73;;
4323;SDS011;2175;51.018;6.994;2022-09-29T04:12:31;8.37;;;6.73;;
4323;SDS011;2175;51.018;6.994;2022-09-29T04:14:57;11.87;;;8.17;;
4323;SDS011;2175;51.018;6.994;2022-09-29T04:17:22;10.73;;;6.33;;
4323;SDS011;2175;51.018;6.994;2022-09-29T04:19:48;9.07;;;6.87;;
4323;SDS011;2175;51.018;6.994;2022-09-29T04:22:14;9.97;;;6.77;;
4323;SDS011;2175;51.018;6.994;2022-09-29T04:24:44;7.27;;;6.20;;
4323;SDS011;2175;51.018;6.994;2022-09-29T04:27:10;8.97;;;6.50;;
4323;SDS011;2175;51.018;6.994;2022-09-29T04:29:35;8.40;;;6.60;;
4323;SDS011;2175;51.018;6.994;2022-09-29T04:32:01;10.63;;;6.80;;
4323;SDS011;2175;51.018;6.994;2022-09-29T04:34:26;10.30;;;6.80;;
4323;SDS011;2175;51.018;6.994;2022-09-29T04:36:52;7.80;;;6.03;;
4323;SDS011;2175;51.018;6.994;2022-09-29T04:39:17;9.10;;;6.43;;
4323;SDS011;2175;51.018;6.994;2022-09-29T04:41:43;9.40;;;7.53;;
4323;SDS011;2175;51.018;6.994;2022-09-29T04:44:09;8.80;;;7.70;;
4323;SDS011;2175;51.018;6.994;2022-09-29T04:46:35;10.90;;;7.60;;
4323;SDS011;2175;51.018;6.994;2022-09-29T04:49:01;8.43;;;6.90;;
4323;SDS011;2175;51.018;6.994;2022-09-29T04:51:26;9.23;;;7.20;;
4323;SDS011;2175;51.018;6.994;2022-09-29T04:53:52;11.80;;;7.30;;
4323;SDS011;2175;51.018;6.994;2022-09-29T04:56:17;10.83;;;7.23;;
4323;SDS011;2175;51.018;6.994;2022-09-29T04:58:43;12.13;;;8.03;;
4323;SDS011;2175;51.018;6.994;2022-09-29T05:01:09;12.10;;;7.00;;
4323;SDS011;2175;51.018;6.994;2022-09-29T05:03:39;10.83;;;7.23;;
4323;SDS011;2175;51.018;6.994;2022-09-29T05:06:05;13.13;;;7.20;;
4323;SDS011;2175;51.018;6.994;2022-09-29T05:08:33;9.53;;;7.57;;
4323;SDS011;2175;51.018;6.994;2022-09-29T05:11:02;15.93;;;7.63;;
4323;SDS011;2175;51.018;6.994;2022-09-29T05:13:31;11.50;;;7.27;;
4323;SDS011;2175;51.018;6.994;2022-09-29T05:15:57;8.97;;;7.33;;
4323;SDS011;2175;51.018;6.994;2022-09-29T05:18:23;9.50;;;7.70;;
4323;SDS011;2175;51.018;6.994;2022-09-29T05:20:49;10.43;;;7.60;;
4323;SDS011;2175;51.018;6.994;2022-09-29T05:23:15;11.97;;;7.10;;
4323;SDS011;2175;51.018;6.994;2022-09-29T05:25:40;9.40;;;7.63;;
4323;SDS011;2175;51.018;6.994;2022-09-29T05:28:07;9.90;;;7.50;;
4323;SDS011;2175;51.018;6.994;2022-09-29T05:30:34;10.63;;;8.27;;
4323;SDS011;2175;51.018;6.994;2022-09-29T05:33:01;10.27;;;7.70;;
4323;SDS011;2175;51.018;6.994;2022-09-29T05:35:26;12.10;;;7.87;;
4323;SDS011;2175;51.018;6.994;2022-09-29T05:37:54;9.90;;;7.90;;
4323;SDS011;2175;51.018;6.994;2022-09-29T05:40:19;8.67;;;7.40;;
4323;SDS011;2175;51.018;6.994;2022-09-29T05:42:48;9.43;;;7.53;;
4323;SDS011;2175;51.018;6.994;2022-09-29T05:45:14;9.90;;;7.50;;
4323;SDS011;2175;51.018;6.994;2022-09-29T05:47:43;10.83;;;8.20;;
4323;SDS011;2175;51.018;6.994;2022-09-29T05:50:10;10.50;;;7.70;;
4323;SDS011;2175;51.018;6.994;2022-09-29T05:52:36;8.63;;;6.70;;
4323;SDS011;2175;51.018;6.994;2022-09-29T05:55:03;8.03;;;7.10;;
4323;SDS011;2175;51.018;6.994;2022-09-29T05:57:29;13.27;;;7.27;;
4323;SDS011;2175;51.018;6.994;2022-09-29T05:59:55;10.70;;;7.33;;
4323;SDS011;2175;51.018;6.994;2022-09-29T06:02:22;9.67;;;7.10;;
4323;SDS011;2175;51.018;6.994;2022-09-29T06:04:47;10.50;;;7.77;;
4323;SDS011;2175;51.018;6.994;2022-09-29T06:07:13;9.20;;;7.03;;
4323;SDS011;2175;51.018;6.994;2022-09-29T06:09:44;10.27;;;7.50;;
4323;SDS011;2175;51.018;6.994;2022-09-29T06:12:11;8.93;;;7.17;;
4323;SDS011;2175;51.018;6.994;2022-09-29T06:14:37;8.33;;;7.47;;
4323;SDS011;2175;51.018;6.994;2022-09-29T06:17:02;12.13;;;7.47;;
4323;SDS011;2175;51.018;6.994;2022-09-29T06:19:28;10.63;;;7.10;;
4323;SDS011;2175;51.018;6.994;2022-09-29T06:21:53;9.30;;;7.60;;
4323;SDS011;2175;51.018;6.994;2022-09-29T06:24:19;10.30;;;7.40;;
4323;SDS011;2175;51.018;6.994;2022-09-29T06:26:44;9.20;;;7.83;;
4323;SDS011;2175;51.018;6.994;2022-09-29T06:29:10;16.63;;;8.40;;
4323;SDS011;2175;51.018;6.994;2022-09-29T06:31:36;8.77;;;7.30;;
4323;SDS011;2175;51.018;6.994;2022-09-29T06:34:04;10.67;;;7.87;;
4323;SDS011;2175;51.018;6.994;2022-09-29T06:36:31;10.77;;;7.70;;
4323;SDS011;2175;51.018;6.994;2022-09-29T06:39:19;9.37;;;8.03;;
4323;SDS011;2175;51.018;6.994;2022-09-29T06:41:45;11.00;;;8.03;;
4323;SDS011;2175;51.018;6.994;2022-09-29T06:44:18;11.47;;;8.03;;
4323;SDS011;2175;51.018;6.994;2022-09-29T06:46:45;10.00;;;7.70;;
4323;SDS011;2175;51.018;6.994;2022-09-29T06:49:12;13.23;;;9.30;;
4323;SDS011;2175;51.018;6.994;2022-09-29T06:51:39;17.43;;;9.30;;
4323;SDS011;2175;51.018;6.994;2022-09-29T06:54:05;14.40;;;9.37;;
4323;SDS011;2175;51.018;6.994;2022-09-29T06:56:31;13.10;;;8.23;;
4323;SDS011;2175;51.018;6.994;2022-09-29T06:58:57;10.27;;;8.80;;
4323;SDS011;2175;51.018;6.994;2022-09-29T07:01:24;11.87;;;9.33;;
4323;SDS011;2175;51.018;6.994;2022-09-29T07:03:50;12.40;;;10.00;;
4323;SDS011;2175;51.018;6.994;2022-09-29T07:06:16;14.27;;;9.10;;
4323;SDS011;2175;51.018;6.994;2022-09-29T07:08:43;14.80;;;9.57;;
4323;SDS011;2175;51.018;6.994;2022-09-29T07:11:09;15.37;;;9.50;;
4323;SDS011;2175;51.018;6.994;2022-09-29T07:13:35;12.23;;;9.47;;
4323;SDS011;2175;51.018;6.994;2022-09-29T07:16:08;10.97;;;9.33;;
4323;SDS011;2175;51.018;6.994;2022-09-29T07:18:36;12.43;;;10.70;;
4323;SDS011;2175;51.018;6.994;2022-09-29T07:21:04;10.10;;;8.63;;
4323;SDS011;2175;51.018;6.994;2022-09-29T07:23:31;13.20;;;10.10;;
4323;SDS011;2175;51.018;6.994;2022-09-29T07:25:57;14.80;;;9.20;;
4323;SDS011;2175;51.018;6.994;2022-09-29T07:28:23;10.33;;;9.10;;
4323;SDS011;2175;51.018;6.994;2022-09-29T07:31:02;15.20;;;10.40;;
4323;SDS011;2175;51.018;6.994;2022-09-29T07:33:31;16.40;;;9.97;;
4323;SDS011;2175;51.018;6.994;2022-09-29T07:35:57;14.70;;;9.90;;
4323;SDS011;2175;51.018;6.994;2022-09-29T07:38:24;14.53;;;9.83;;
4323;SDS011;2175;51.018;6.994;2022-09-29T07:40:52;11.30;;;8.97;;
4323;SDS011;2175;51.018;6.994;2022-09-29T07:43:18;18.00;;;10.13;;
4323;SDS011;2175;51.018;6.994;2022-09-29T07:45:50;12.30;;;10.43;;
4323;SDS011;2175;51.018;6.994;2022-09-29T07:48:16;13.50;;;11.03;;
4323;SDS011;2175;51.018;6.994;2022-09-29T07:50:42;12.97;;;10.53;;
4323;SDS011;2175;51.018;6.994;2022-09-29T07:53:09;11.47;;;9.50;;
4323;SDS011;2175;51.018;6.994;2022-09-29T07:55:36;18.13;;;11.03;;
4323;SDS011;2175;51.018;6.994;2022-09-29T07:58:01;14.83;;;9.57;;
4323;SDS011;2175;51.018;6.994;2022-09-29T08:00:28;10.97;;;9.83;;
4323;SDS011;2175;51.018;6.994;2022-09-29T08:03:00;11.60;;;9.40;;
4323;SDS011;2175;51.018;6.994;2022-09-29T08:05:33;14.30;;;10.47;;
4323;SDS011;2175;51.018;6.994;2022-09-29T08:08:00;10.13;;;9.03;;
4323;SDS011;2175;51.018;6.994;2022-09-29T08:10:27;12.17;;;9.97;;
4323;SDS011;2175;51.018;6.994;2022-09-29T08:12:53;10.20;;;9.10;;
4323;SDS011;2175;51.018;6.994;2022-09-29T08:15:19;12.00;;;9.00;;
4323;SDS011;2175;51.018;6.994;2022-09-29T08:17:45;10.30;;;8.70;;
4323;SDS011;2175;51.018;6.994;2022-09-29T08:20:12;10.40;;;8.20;;
4323;SDS011;2175;51.018;6.994;2022-09-29T08:22:38;12.30;;;8.50;;
4323;SDS011;2175;51.018;6.994;2022-09-29T08:25:03;8.47;;;7.67;;
4323;SDS011;2175;51.018;6.994;2022-09-29T08:27:29;9.23;;;7.60;;
4323;SDS011;2175;51.018;6.994;2022-09-29T08:29:56;8.73;;;7.20;;
4323;SDS011;2175;51.018;6.994;2022-09-29T08:32:22;8.47;;;7.07;;
4323;SDS011;2175;51.018;6.994;2022-09-29T08:34:49;7.60;;;6.67;;
4323;SDS011;2175;51.018;6.994;2022-09-29T08:37:14;9.40;;;7.00;;
4323;SDS011;2175;51.018;6.994;2022-09-29T08:39:42;10.17;;;7.17;;
4323;SDS011;2175;51.018;6.994;2022-09-29T08:42:14;10.67;;;7.73;;
4323;SDS011;2175;51.018;6.994;2022-09-29T08:44:58;8.07;;;7.27;;
4323;SDS011;2175;51.018;6.994;2022-09-29T08:47:28;10.47;;;7.20;;
4323;SDS011;2175;51.018;6.994;2022-09-29T08:50:00;8.00;;;6.63;;
4323;SDS011;2175;51.018;6.994;2022-09-29T08:53:00;11.07;;;7.37;;
4323;SDS011;2175;51.018;6.994;2022-09-29T08:55:49;9.00;;;7.33;;
4323;SDS011;2175;51.018;6.994;2022-09-29T08:58:18;14.73;;;7.57;;
4323;SDS011;2175;51.018;6.994;2022-09-29T09:00:58;8.03;;;7.03;;
4323;SDS011;2175;51.018;6.994;2022-09-29T09:12:16;13.90;;;7.70;;
4323;SDS011;2175;51.018;6.994;2022-09-29T09:20:13;12.17;;;9.50;;
4323;SDS011;2175;51.018;6.994;2022-09-29T09:22:58;12.60;;;9.33;;
4323;SDS011;2175;51.018;6.994;2022-09-29T09:25:29;13.67;;;9.10;;
4323;SDS011;2175;51.018;6.994;2022-09-29T09:28:05;13.37;;;9.53;;
4323;SDS011;2175;51.018;6.994;2022-09-29T09:30:45;13.00;;;10.17;;
4323;SDS011;2175;51.018;6.994;2022-09-29T09:33:36;14.17;;;9.67;;
4323;SDS011;2175;51.018;6.994;2022-09-29T09:36:09;13.47;;;10.73;;
4323;SDS011;2175;51.018;6.994;2022-09-29T09:38:44;13.93;;;10.50;;
4323;SDS011;2175;51.018;6.994;2022-09-29T09:41:14;16.20;;;10.90;;
4323;SDS011;2175;51.018;6.994;2022-09-29T09:43:44;16.23;;;10.30;;
4323;SDS011;2175;51.018;6.994;2022-09-29T09:46:19;14.70;;;10.33;;
4323;SDS011;2175;51.018;6.994;2022-09-29T09:54:33;8.83;;;6.93;;
4323;SDS011;2175;51.018;6.994;2022-09-29T09:57:06;9.00;;;7.10;;
4323;SDS011;2175;51.018;6.994;2022-09-29T10:00:00;10.13;;;7.70;;
4323;SDS011;2175;51.018;6.994;2022-09-29T10:02:31;9.80;;;7.60;;
4323;SDS011;2175;51.018;6.994;2022-09-29T10:04:57;8.33;;;6.93;;
4323;SDS011;2175;51.018;6.994;2022-09-29T10:07:23;11.03;;;7.00;;
4323;SDS011;2175;51.018;6.994;2022-09-29T10:09:51;11.43;;;6.80;;
4323;SDS011;2175;51.018;6.994;2022-09-29T10:12:19;8.63;;;6.60;;
4323;SDS011;2175;51.018;6.994;2022-09-29T10:14:51;10.90;;;6.93;;
4323;SDS011;2175;51.018;6.994;2022-09-29T10:17:22;13.33;;;6.73;;
4323;SDS011;2175;51.018;6.994;2022-09-29T10:19:52;8.27;;;6.77;;
4323;SDS011;2175;51.018;6.994;2022-09-29T10:22:24;13.50;;;7.67;;
4323;SDS011;2175;51.018;6.994;2022-09-29T10:24:52;12.60;;;6.93;;
4323;SDS011;2175;51.018;6.994;2022-09-29T10:27:30;14.00;;;6.60;;
4323;SDS011;2175;51.018;6.994;2022-09-29T10:29:56;14.60;;;6.40;;
4323;SDS011;2175;51.018;6.994;2022-09-29T10:35:22;8.60;;;5.60;;
4323;SDS011;2175;51.018;6.994;2022-09-29T10:37:56;12.70;;;7.20;;
4323;SDS011;2175;51.018;6.994;2022-09-29T10:40:29;15.10;;;6.60;;
4323;SDS011;2175;51.018;6.994;2022-09-29T10:42:55;10.53;;;7.53;;
4323;SDS011;2175;51.018;6.994;2022-09-29T10:45:26;13.63;;;7.17;;
4323;SDS011;2175;51.018;6.994;2022-09-29T10:50:23;9.97;;;6.90;;
4323;SDS011;2175;51.018;6.994;2022-09-29T10:53:02;9.40;;;6.70;;
4323;SDS011;2175;51.018;6.994;2022-09-29T10:55:48;10.77;;;8.43;;
4323;SDS011;2175;51.018;6.994;2022-09-29T10:58:19;10.93;;;6.70;;
4323;SDS011;2175;51.018;6.994;2022-09-29T11:00:49;9.63;;;7.13;;
4323;SDS011;2175;51.018;6.994;2022-09-29T11:03:28;10.30;;;6.23;;
4323;SDS011;2175;51.018;6.994;2022-09-29T11:08:52;9.10;;;7.07;;
4323;SDS011;2175;51.018;6.994;2022-09-29T11:11:29;12.33;;;7.33;;
4323;SDS011;2175;51.018;6.994;2022-09-29T11:13:57;7.93;;;6.33;;
4323;SDS011;2175;51.018;6.994;2022-09-29T11:18:55;8.73;;;6.20;;
4323;SDS011;2175;51.018;6.994;2022-09-29T11:32:28;18.63;;;6.80;;
4323;SDS011;2175;51.018;6.994;2022-09-29T11:42:55;8.83;;;5.70;;
4323;SDS011;2175;51.018;6.994;2022-09-29T11:45:47;7.40;;;4.83;;
4323;SDS011;2175;51.018;6.994;2022-09-29T11:56:48;7.17;;;4.07;;
4323;SDS011;2175;51.018;6.994;2022-09-29T12:05:18;10.37;;;4.37;;
4323;SDS011;2175;51.018;6.994;2022-09-29T12:07:53;7.20;;;3.73;;
4323;SDS011;2175;51.018;6.994;2022-09-29T12:11:02;7.87;;;4.37;;
4323;SDS011;2175;51.018;6.994;2022-09-29T12:13:45;8.87;;;4.20;;
4323;SDS011;2175;51.018;6.994;2022-09-29T12:16:13;8.73;;;4.13;;
4323;SDS011;2175;51.018;6.994;2022-09-29T12:21:33;8.97;;;3.87;;
4323;SDS011;2175;51.018;6.994;2022-09-29T12:24:16;8.63;;;3.67;;
4323;SDS011;2175;51.018;6.994;2022-09-29T12:26:47;5.13;;;3.60;;
4323;SDS011;2175;51.018;6.994;2022-09-29T12:31:59;7.03;;;3.23;;
4323;SDS011;2175;51.018;6.994;2022-09-29T12:37:36;4.90;;;3.63;;
4323;SDS011;2175;51.018;6.994;2022-09-29T12:45:25;9.93;;;2.80;;
4323;SDS011;2175;51.018;6.994;2022-09-29T12:50:51;5.23;;;3.10;;
4323;SDS011;2175;51.018;6.994;2022-09-29T12:53:24;4.50;;;2.87;;
4323;SDS011;2175;51.018;6.994;2022-09-29T12:58:49;7.20;;;2.73;;
4323;SDS011;2175;51.018;6.994;2022-09-29T13:01:33;4.43;;;2.30;;
4323;SDS011;2175;51.018;6.994;2022-09-29T13:34:16;10.17;;;3.90;;
4323;SDS011;2175;51.018;6.994;2022-09-29T13:36:47;12.67;;;4.00;;
4323;SDS011;2175;51.018;6.994;2022-09-29T13:39:20;15.60;;;5.80;;
4323;SDS011;2175;51.018;6.994;2022-09-29T13:41:47;12.30;;;4.77;;
4323;SDS011;2175;51.018;6.994;2022-09-29T13:44:19;10.27;;;4.23;;
4323;SDS011;2175;51.018;6.994;2022-09-29T13:46:47;7.70;;;3.37;;
4323;SDS011;2175;51.018;6.994;2022-09-29T13:49:14;6.40;;;3.63;;
4323;SDS011;2175;51.018;6.994;2022-09-29T13:54:39;11.20;;;4.40;;
4323;SDS011;2175;51.018;6.994;2022-09-29T13:59:42;8.63;;;3.50;;
4323;SDS011;2175;51.018;6.994;2022-09-29T14:05:34;7.30;;;3.70;;
4323;SDS011;2175;51.018;6.994;2022-09-29T14:12:54;7.80;;;3.50;;
4323;SDS011;2175;51.018;6.994;2022-09-29T14:15:42;8.03;;;3.30;;
4323;SDS011;2175;51.018;6.994;2022-09-29T14:18:20;7.03;;;3.40;;
4323;SDS011;2175;51.018;6.994;2022-09-29T14:20:58;10.53;;;3.20;;
4323;SDS011;2175;51.018;6.994;2022-09-29T14:23:45;8.13;;;3.30;;
4323;SDS011;2175;51.018;6.994;2022-09-29T14:29:18;7.03;;;3.27;;
4323;SDS011;2175;51.018;6.994;2022-09-29T14:31:49;4.90;;;3.13;;
4323;SDS011;2175;51.018;6.994;2022-09-29T14:34:19;9.70;;;3.63;;
4323;SDS011;2175;51.018;6.994;2022-09-29T14:36:47;4.90;;;3.40;;
4323;SDS011;2175;51.018;6.994;2022-09-29T14:39:15;7.40;;;2.87;;
4323;SDS011;2175;51.018;6.994;2022-09-29T14:41:42;4.73;;;2.73;;
4323;SDS011;2175;51.018;6.994;2022-09-29T14:44:11;5.63;;;3.17;;
4323;SDS011;2175;51.018;6.994;2022-09-29T14:47:04;7.90;;;3.57;;
4323;SDS011;2175;51.018;6.994;2022-09-29T14:58:16;7.63;;;4.07;;
4323;SDS011;2175;51.018;6.994;2022-09-29T15:04:08;10.40;;;5.17;;
4323;SDS011;2175;51.018;6.994;2022-09-29T15:06:45;12.73;;;4.97;;
4323;SDS011;2175;51.018;6.994;2022-09-29T15:11:42;7.50;;;4.20;;
4323;SDS011;2175;51.018;6.994;2022-09-29T15:14:23;7.00;;;3.70;;
4323;SDS011;2175;51.018;6.994;2022-09-29T15:19:44;8.60;;;4.10;;
4323;SDS011;2175;51.018;6.994;2022-09-29T15:27:55;4.80;;;3.73;;
4323;SDS011;2175;51.018;6.994;2022-09-29T15:30:25;7.60;;;3.57;;
4323;SDS011;2175;51.018;6.994;2022-09-29T15:32:53;7.00;;;4.00;;
4323;SDS011;2175;51.018;6.994;2022-09-29T15:35:30;5.93;;;3.60;;
4323;SDS011;2175;51.018;6.994;2022-09-29T15:37:57;8.67;;;3.40;;
4323;SDS011;2175;51.018;6.994;2022-09-29T15:40:40;6.37;;;4.17;;
4323;SDS011;2175;51.018;6.994;2022-09-29T15:43:22;13.03;;;3.87;;
4323;SDS011;2175;51.018;6.994;2022-09-29T15:45:53;7.30;;;4.63;;
4323;SDS011;2175;51.018;6.994;2022-09-29T15:48:24;10.17;;;4.77;;
4323;SDS011;2175;51.018;6.994;2022-09-29T15:50:50;6.13;;;3.57;;
4323;SDS011;2175;51.018;6.994;2022-09-29T15:53:19;8.10;;;3.87;;
4323;SDS011;2175;51.018;6.994;2022-09-29T15:55:45;6.57;;;3.73;;
4323;SDS011;2175;51.018;6.994;2022-09-29T16:00:49;7.27;;;3.80;;
4323;SDS011;2175;51.018;6.994;2022-09-29T16:05:59;11.13;;;4.70;;
4323;SDS011;2175;51.018;6.994;2022-09-29T16:08:32;6.10;;;4.40;;
4323;SDS011;2175;51.018;6.994;2022-09-29T16:11:02;7.53;;;4.23;;
4323;SDS011;2175;51.018;6.994;2022-09-29T16:13:32;9.57;;;5.13;;
4323;SDS011;2175;51.018;6.994;2022-09-29T16:16:05;9.33;;;3.80;;
4323;SDS011;2175;51.018;6.994;2022-09-29T16:18:47;7.13;;;3.77;;
4323;SDS011;2175;51.018;6.994;2022-09-29T16:21:17;11.07;;;4.23;;
4323;SDS011;2175;51.018;6.994;2022-09-29T16:23:49;6.30;;;3.90;;
4323;SDS011;2175;51.018;6.994;2022-09-29T16:31:34;10.50;;;3.87;;
4323;SDS011;2175;51.018;6.994;2022-09-29T16:34:07;8.43;;;3.37;;
4323;SDS011;2175;51.018;6.994;2022-09-29T16:36:46;6.90;;;3.27;;
4323;SDS011;2175;51.018;6.994;2022-09-29T16:39:13;5.17;;;2.73;;
4323;SDS011;2175;51.018;6.994;2022-09-29T16:41:41;5.10;;;2.30;;
4323;SDS011;2175;51.018;6.994;2022-09-29T16:44:14;7.23;;;3.03;;
4323;SDS011;2175;51.018;6.994;2022-09-29T16:49:13;4.70;;;2.50;;
4323;SDS011;2175;51.018;6.994;2022-09-29T16:51:42;6.20;;;2.67;;
4323;SDS011;2175;51.018;6.994;2022-09-29T16:54:17;4.90;;;2.40;;
4323;SDS011;2175;51.018;6.994;2022-09-29T16:56:46;6.43;;;2.80;;
4323;SDS011;2175;51.018;6.994;2022-09-29T16:59:16;7.73;;;2.90;;
4323;SDS011;2175;51.018;6.994;2022-09-29T17:01:43;11.57;;;2.70;;
4323;SDS011;2175;51.018;6.994;2022-09-29T17:04:10;5.80;;;2.70;;
4323;SDS011;2175;51.018;6.994;2022-09-29T17:06:37;5.80;;;3.10;;
4323;SDS011;2175;51.018;6.994;2022-09-29T17:09:09;5.03;;;2.80;;
4323;SDS011;2175;51.018;6.994;2022-09-29T17:11:40;9.83;;;2.93;;
4323;SDS011;2175;51.018;6.994;2022-09-29T17:14:08;10.57;;;3.13;;
4323;SDS011;2175;51.018;6.994;2022-09-29T17:16:35;7.97;;;3.33;;
4323;SDS011;2175;51.018;6.994;2022-09-29T17:19:03;4.70;;;2.83;;
4323;SDS011;2175;51.018;6.994;2022-09-29T17:21:28;5.73;;;3.33;;
4323;SDS011;2175;51.018;6.994;2022-09-29T17:23:54;6.80;;;3.33;;
4323;SDS011;2175;51.018;6.994;2022-09-29T17:26:21;6.37;;;3.40;;
4323;SDS011;2175;51.018;6.994;2022-09-29T17:29:09;6.50;;;3.63;;
4323;SDS011;2175;51.018;6.994;2022-09-29T17:31:35;6.20;;;3.50;;
4323;SDS011;2175;51.018;6.994;2022-09-29T17:34:01;7.33;;;3.70;;
4323;SDS011;2175;51.018;6.994;2022-09-29T17:36:27;8.40;;;3.60;;
4323;SDS011;2175;51.018;6.994;2022-09-29T17:38:53;7.97;;;3.53;;
4323;SDS011;2175;51.018;6.994;2022-09-29T17:41:19;6.37;;;3.43;;
4323;SDS011;2175;51.018;6.994;2022-09-29T17:43:46;9.53;;;3.70;;
4323;SDS011;2175;51.018;6.994;2022-09-29T17:46:12;6.73;;;3.33;;
4323;SDS011;2175;51.018;6.994;2022-09-29T17:48:39;11.87;;;3.47;;
4323;SDS011;2175;51.018;6.994;2022-09-29T17:51:08;9.20;;;3.73;;
4323;SDS011;2175;51.018;6.994;2022-09-29T17:53:36;6.00;;;3.33;;
4323;SDS011;2175;51.018;6.994;2022-09-29T17:56:02;10.03;;;3.70;;
4323;SDS011;2175;51.018;6.994;2022-09-29T17:58:28;8.33;;;4.17;;
4323;SDS011;2175;51.018;6.994;2022-09-29T18:00:54;9.17;;;3.80;;
4323;SDS011;2175;51.018;6.994;2022-09-29T18:03:23;11.40;;;4.87;;
4323;SDS011;2175;51.018;6.994;2022-09-29T18:05:53;8.07;;;4.20;;
4323;SDS011;2175;51.018;6.994;2022-09-29T18:08:24;7.50;;;4.07;;
4323;SDS011;2175;51.018;6.994;2022-09-29T18:10:55;8.03;;;4.33;;
4323;SDS011;2175;51.018;6.994;2022-09-29T18:13:23;12.87;;;4.60;;
4323;SDS011;2175;51.018;6.994;2022-09-29T18:15:51;8.63;;;4.10;;
4323;SDS011;2175;51.018;6.994;2022-09-29T18:18:18;16.00;;;4.70;;
4323;SDS011;2175;51.018;6.994;2022-09-29T18:20:46;7.20;;;3.97;;
4323;SDS011;2175;51.018;6.994;2022-09-29T18:23:14;6.60;;;4.13;;
4323;SDS011;2175;51.018;6.994;2022-09-29T18:25:41;6.20;;;3.60;;
4323;SDS011;2175;51.018;6.994;2022-09-29T18:28:11;5.87;;;4.17;;
4323;SDS011;2175;51.018;6.994;2022-09-29T18:30:40;8.67;;;3.90;;
4323;SDS011;2175;51.018;6.994;2022-09-29T18:33:17;10.60;;;3.40;;
4323;SDS011;2175;51.018;6.994;2022-09-29T18:35:44;7.40;;;4.37;;
4323;SDS011;2175;51.018;6.994;2022-09-29T18:38:14;12.30;;;3.40;;
4323;SDS011;2175;51.018;6.994;2022-09-29T18:40:40;10.60;;;4.47;;
4323;SDS011;2175;51.018;6.994;2022-09-29T18:43:05;5.90;;;4.00;;
4323;SDS011;2175;51.018;6.994;2022-09-29T18:45:33;9.93;;;4.20;;